Tuesday, June 19, 2018, 12:38 AM GMT
Back to Local

CWZS, Amqui , Que.

Location: , , Canada Lat: 48.467
Local Time: 12:38 AM GMT ( 0:38 GMT) Lon: -67.433
Time Zone: GMT Elev: 544 ft

Show me the last for .
Show Coded

Time T Td Feel RH Dir Speed Gust Alt SLP Vis Weather Sky Remarks
2018-06-19 00:00 63 61 - 95 190° 2 - - 29.44 0 None
2018-06-18 23:00 64 62 - 94 200° 2 - - 29.46 0 None
2018-06-18 22:00 63 60 - 89 190° 2 - - 29.47 0 None
2018-06-18 21:00 63 62 - 95 180° 2 - - 29.48 0 None
2018-06-18 20:00 63 62 - 96 150° 3 - - 29.49 0 1-hr Precip Total: 0.16"
2018-06-18 19:00 61 60 - 96 140° 3 - - 29.50 0 1-hr Precip Total: 0.12"
2018-06-18 18:00 60 59 - 95 140° 5 - - 29.52 0 None
2018-06-18 17:00 60 58 - 94 140° 7 - - 29.54 0 None
2018-06-18 16:00 58 57 - 95 150° 7 - - 29.56 0 1-hr Precip Total: 0.08"
2018-06-18 15:00 58 56 - 94 140° 8 - - 29.58 0 None
2018-06-18 14:00 56 55 - 94 140° 7 - - 29.61 0 None
2018-06-18 13:00 55 54 - 95 150° 6 - - 29.63 0 None
2018-06-18 12:00 55 53 - 94 150° 7 - - 29.66 0 None
2018-06-18 11:00 55 54 - 96 150° 6 - - 29.68 0 1-hr Precip Total: 0.04"
2018-06-18 10:00 55 54 - 96 140° 8 - - 29.70 0 None
2018-06-18 09:00 55 54 - 95 150° 9 - - 29.72 0 1-hr Precip Total: 0.04"
2018-06-18 08:00 56 54 - 95 140° 8 - - 29.73 0 1-hr Precip Total: 0.11"
2018-06-18 07:00 55 54 - 95 150° 10 - - 29.76 0 1-hr Precip Total: 0.17"
2018-06-18 06:00 55 53 - 94 150° 6 - - 29.78 0 None
2018-06-18 05:00 55 53 - 94 150° 6 - - 29.82 0 None
2018-06-18 04:00 54 53 - 95 140° 7 - - 29.85 0 1-hr Precip Total: 0.04"
2018-06-18 03:00 53 52 - 95 150° 7 - - 29.89 0 1-hr Precip Total: 0.08"
2018-06-18 02:00 52 51 - 96 160° 5 - - 29.92 0 1-hr Precip Total: 0.16"
2018-06-18 01:00 53 49 - 88 160° 5 - - 29.95 0 1-hr Precip Total: 0.12"

Support USWX by starting your Amazon purchase here.